Time;durP1;ratioP1;P1;durP2;ratioP2;P2;SDS_P1;SDS_P2;PMS_P1;PMS_P2;Temp;Humidity;BMP_temperature;BMP_pressure;BME280_temperature;BME280_humidity;BME280_pressure;Samples;Min_cycle;Max_cycle;Signal;HPM_P1;HPM_P2
2022/12/04 00:01:20;;;;;;;42.45;18.15;;;;;;;3.68;96.18;100665.56;8355769;28;20039;-51
2022/12/04 00:05:20;;;;;;;51.10;19.35;;;;;;;3.67;95.72;100658.50;8367095;28;20468;-50
2022/12/04 00:09:21;;;;;;;48.33;20.20;;;;;;;3.67;96.30;100643.34;8383902;28;20371;-54
2022/12/04 00:13:21;;;;;;;43.70;18.90;;;;;;;3.68;96.11;100645.03;8388504;28;20414;-51
2022/12/04 00:17:22;;;;;;;44.40;18.10;;;;;;;3.68;96.06;100646.84;8408905;28;20036;-54
2022/12/04 00:21:24;;;;;;;43.47;19.13;;;;;;;3.67;96.79;100648.69;8418483;28;20029;-54
2022/12/04 00:25:25;;;;;;;47.05;19.63;;;;;;;3.65;96.68;100645.22;8427310;28;20066;-51
2022/12/04 00:29:25;;;;;;;46.22;19.63;;;;;;;3.66;97.10;100646.09;8407933;28;20524;-52
2022/12/04 00:33:26;;;;;;;41.85;18.45;;;;;;;3.65;96.13;100642.56;8421030;28;20651;-51
2022/12/04 00:37:27;;;;;;;46.65;18.92;;;;;;;3.66;96.35;100636.25;8421289;28;20115;-52
2022/12/04 00:41:29;;;;;;;48.40;19.60;;;;;;;3.67;97.03;100637.13;8420514;28;20513;-53
2022/12/04 00:45:29;;;;;;;48.97;19.77;;;;;;;3.65;96.51;100631.88;8421323;28;20505;-52
2022/12/04 00:49:30;;;;;;;43.60;19.23;;;;;;;3.69;95.97;100620.00;8420573;28;20418;-54
2022/12/04 00:53:31;;;;;;;47.33;20.13;;;;;;;3.73;95.94;100620.69;8419659;28;20042;-51
2022/12/04 00:57:31;;;;;;;49.25;19.88;;;;;;;3.71;95.47;100627.94;8423590;28;20040;-54
2022/12/04 01:01:32;;;;;;;44.75;19.35;;;;;;;3.73;95.32;100621.53;8426463;28;20049;-54
2022/12/04 01:05:38;;;;;;;43.35;19.13;;;;;;;3.71;95.08;100615.44;8426856;28;20451;-53
2022/12/04 01:09:39;;;;;;;49.50;20.58;;;;;;;3.71;95.28;100620.78;8427542;28;20368;-51
2022/12/04 01:13:39;;;;;;;44.45;18.50;;;;;;;3.71;95.35;100631.50;8428041;28;20036;-53
2022/12/04 01:17:40;;;;;;;50.17;20.08;;;;;;;3.72;95.61;100625.16;8427623;28;20064;-54
2022/12/04 01:21:40;;;;;;;43.67;19.50;;;;;;;3.69;95.03;100630.72;8426661;28;20089;-52
2022/12/04 01:25:53;;;;;;;40.60;16.60;;;;;;;3.69;94.98;100630.72;8427296;28;20075;-54
2022/12/04 01:29:53;;;;;;;44.92;18.48;;;;;;;3.73;94.66;100636.75;8426673;28;20097;-53
2022/12/04 01:33:54;;;;;;;44.17;18.63;;;;;;;3.73;93.58;100626.88;8426508;28;20060;-54
2022/12/04 01:37:54;;;;;;;41.47;17.48;;;;;;;3.72;93.83;100625.16;8425715;28;20040;-54
2022/12/04 01:41:55;;;;;;;41.78;16.83;;;;;;;3.73;94.21;100616.19;8426091;28;20036;-53
2022/12/04 01:45:57;;;;;;;41.38;17.83;;;;;;;3.69;95.04;100613.84;8425497;28;20036;-53
2022/12/04 01:49:58;;;;;;;39.45;16.42;;;;;;;3.69;94.64;100614.66;8424612;28;20036;-50
2022/12/04 01:54:01;;;;;;;44.17;17.17;;;;;;;3.71;93.66;100607.44;8425507;28;20590;-54
2022/12/04 01:58:02;;;;;;;36.25;16.15;;;;;;;3.71;93.36;100615.44;8424530;28;20050;-51
2022/12/04 02:02:07;;;;;;;36.10;16.45;;;;;;;3.71;93.78;100610.09;8424323;28;20039;-54
2022/12/04 02:06:07;;;;;;;38.85;16.30;;;;;;;3.71;93.17;100602.09;8425151;28;20454;-53
2022/12/04 02:10:09;;;;;;;41.85;17.30;;;;;;;3.71;93.16;100610.09;8425482;28;20475;-52
2022/12/04 02:14:29;;;;;;;37.38;15.38;;;;;;;3.68;93.02;100607.63;8425497;28;20447;-54
2022/12/04 02:19:09;;;;;;;38.85;16.45;;;;;;;3.69;92.93;100609.31;8423634;28;20046;-54
2022/12/04 02:23:22;;;;;;;39.15;17.50;;;;;;;3.68;92.48;100617.44;8424194;28;20063;-53
2022/12/04 02:31:43;;;;;;;38.53;16.98;;;;;;;3.66;92.80;100625.56;8411891;27;20391;-50
2022/12/04 02:35:51;;;;;;;35.92;14.45;;;;;;;3.62;91.34;100624.03;8401133;27;20036;-53
2022/12/04 02:40:05;;;;;;;39.03;14.88;;;;;;;3.61;90.96;100622.31;8400622;27;20029;-50
2022/12/04 02:44:13;;;;;;;37.93;16.23;;;;;;;3.58;91.20;100627.00;8401547;27;20170;-48
2022/12/04 02:48:19;;;;;;;34.67;14.90;;;;;;;3.53;90.87;100621.91;8400848;27;20138;-52
2022/12/04 02:52:24;;;;;;;35.75;15.50;;;;;;;3.50;90.84;100624.78;8368043;28;20728;-53
2022/12/04 02:56:29;;;;;;;33.60;15.18;;;;;;;3.48;90.93;100615.97;8367357;28;20059;-49
2022/12/04 03:00:31;;;;;;;;;;;;;;;3.49;90.79;100620.41;8410495;27;20047;-51
2022/12/04 03:04:32;;;;;;;32.67;14.40;;;;;;;3.45;90.87;100620.69;8407256;27;19939;-52
2022/12/04 03:08:38;;;;;;;32.60;13.95;;;;;;;3.43;90.65;100618.09;8400015;27;20047;-51
2022/12/04 03:13:00;;;;;;;29.33;12.88;;;;;;;3.43;90.11;100620.78;8400148;27;20594;-52
2022/12/04 03:17:07;;;;;;;33.90;14.23;;;;;;;3.45;90.65;100631.38;8399929;27;20041;-50
2022/12/04 03:21:13;;;;;;;29.98;13.52;;;;;;;3.41;90.91;100633.34;8398525;27;20074;-51
2022/12/04 03:25:14;;;;;;;25.40;12.85;;;;;;;3.42;90.17;100627.03;8380214;28;20044;-52
2022/12/04 03:29:22;;;;;;;30.10;13.85;;;;;;;3.40;90.62;100623.63;8405465;28;20131;-49
2022/12/04 03:33:31;;;;;;;28.27;13.02;;;;;;;3.40;90.94;100618.28;8402273;28;20042;-52
2022/12/04 03:37:40;;;;;;;35.55;14.98;;;;;;;3.37;91.09;100622.94;8412012;28;20082;-53
2022/12/04 03:42:06;;;;;;;30.02;14.13;;;;;;;3.35;90.22;100628.38;8400949;28;20039;-50
2022/12/04 03:46:13;;;;;;;31.50;13.25;;;;;;;3.33;90.16;100622.25;8392867;28;20044;-49
2022/12/04 03:50:22;;;;;;;32.45;13.48;;;;;;;3.32;90.61;100620.56;8381072;28;20029;-47
2022/12/04 03:54:29;;;;;;;31.33;14.63;;;;;;;3.30;90.87;100619.78;8374499;28;20098;-51
2022/12/04 03:58:33;;;;;;;33.60;14.25;;;;;;;3.29;91.46;100615.41;8373945;28;20032;-49
2022/12/04 04:02:38;;;;;;;29.70;13.77;;;;;;;3.29;91.21;100625.22;8382122;28;20036;-50
2022/12/04 04:06:46;;;;;;;27.15;12.93;;;;;;;3.25;90.52;100618.34;8392826;28;20477;-51
2022/12/04 04:10:49;;;;;;;31.77;13.90;;;;;;;3.21;90.44;100632.84;8392440;28;20426;-53
2022/12/04 04:24:25;;;;;;;26.98;12.98;;;;;;;3.14;90.47;100623.47;8374485;28;20119;-50
2022/12/04 04:28:36;;;;;;;28.42;13.55;;;;;;;3.14;90.42;100627.00;8374283;28;20406;-53
2022/12/04 04:32:43;;;;;;;28.17;13.18;;;;;;;3.13;91.21;100621.75;8374979;28;20123;-49
2022/12/04 04:36:57;;;;;;;30.80;13.32;;;;;;;3.11;91.03;100616.50;8374914;28;20037;-53
2022/12/04 04:41:18;;;;;;;28.05;12.80;;;;;;;3.09;91.17;100622.88;8374931;28;20044;-52
2022/12/04 04:45:25;;;;;;;26.33;11.68;;;;;;;3.07;91.20;100611.41;8374958;28;20041;-50
2022/12/04 04:49:29;;;;;;;26.10;12.32;;;;;;;3.06;90.57;100613.25;8374645;28;20033;-52
2022/12/04 04:53:37;;;;;;;28.20;13.10;;;;;;;3.06;90.90;100607.91;8374013;28;20033;-51
2022/12/04 04:57:38;;;;;;;25.83;12.57;;;;;;;3.05;90.77;100614.19;8374739;28;20041;-51
2022/12/04 05:01:41;;;;;;;29.98;13.45;;;;;;;3.02;91.44;100611.69;8374499;28;20045;-51
2022/12/04 05:05:41;;;;;;;28.48;13.18;;;;;;;2.98;91.55;100604.81;8374413;28;20590;-53
2022/12/04 05:09:42;;;;;;;29.20;13.63;;;;;;;2.94;91.01;100600.63;8374213;28;20386;-51
2022/12/04 05:13:42;;;;;;;23.02;11.18;;;;;;;2.97;91.88;100597.78;8369639;28;20041;-50
2022/12/04 05:17:43;;;;;;;27.70;12.20;;;;;;;2.92;91.41;100599.84;8368953;28;20036;-55
2022/12/04 05:21:43;;;;;;;22.08;11.45;;;;;;;2.93;91.76;100590.88;8375424;28;20039;-51
2022/12/04 05:25:44;;;;;;;26.02;12.60;;;;;;;2.92;92.05;100602.53;8393794;28;20036;-52
2022/12/04 05:29:45;;;;;;;28.10;13.10;;;;;;;2.91;92.16;100598.13;8373264;28;20056;-55
2022/12/04 05:33:45;;;;;;;24.58;12.82;;;;;;;2.93;91.81;100596.22;8372489;28;20037;-51
2022/12/04 05:37:46;;;;;;;25.65;12.50;;;;;;;2.93;91.97;100592.72;8373825;28;20059;-53
2022/12/04 05:41:46;;;;;;;27.63;13.00;;;;;;;2.92;91.85;100597.19;8372875;28;20514;-53
2022/12/04 05:45:47;;;;;;;28.45;12.50;;;;;;;2.92;92.25;100599.84;8372192;28;20052;-55
2022/12/04 05:49:47;;;;;;;27.15;12.70;;;;;;;2.89;92.39;100594.69;8371520;28;20383;-52
2022/12/04 05:53:50;;;;;;;29.02;13.45;;;;;;;2.88;92.27;100592.97;8368381;28;20124;-54
2022/12/04 05:57:50;;;;;;;30.95;12.88;;;;;;;2.87;92.74;100601.91;8399300;28;20044;-51
2022/12/04 06:01:51;;;;;;;31.50;14.10;;;;;;;2.90;93.56;100601.75;8372991;28;20175;-54
2022/12/04 06:05:51;;;;;;;31.50;14.20;;;;;;;2.89;93.82;100600.03;8372578;28;20313;-54
2022/12/04 06:09:53;;;;;;;30.10;14.60;;;;;;;2.92;93.23;100602.53;8372298;28;20051;-55
2022/12/04 06:13:55;;;;;;;32.08;14.75;;;;;;;2.91;92.94;100603.47;8372368;28;20500;-51
2022/12/04 06:17:55;;;;;;;28.63;12.90;;;;;;;2.95;92.39;100607.69;8371551;28;20410;-52
2022/12/04 06:21:56;;;;;;;29.33;13.20;;;;;;;2.96;91.28;100617.41;8392601;28;20127;-52
2022/12/04 06:26:01;;;;;;;28.15;13.38;;;;;;;2.93;91.75;100617.56;8356006;28;20095;-49
2022/12/04 06:30:01;;;;;;;26.52;12.73;;;;;;;2.96;91.90;100627.25;8341631;28;20102;-51
2022/12/04 06:34:02;;;;;;;30.55;12.30;;;;;;;2.95;92.03;100621.03;8341904;28;20124;-50
2022/12/04 06:38:03;;;;;;;27.05;12.95;;;;;;;2.92;92.07;100629.22;8330398;28;20037;-50
2022/12/04 06:42:03;;;;;;;31.90;14.15;;;;;;;2.89;92.28;100624.06;8322738;28;20037;-50
2022/12/04 06:46:11;;;;;;;27.80;13.45;;;;;;;2.91;92.51;100624.84;8334009;28;20558;-50
2022/12/04 06:50:12;;;;;;;24.90;12.55;;;;;;;2.91;92.54;100624.84;8379956;28;20072;-49
2022/12/04 06:54:13;;;;;;;23.60;12.18;;;;;;;2.92;92.40;100623.88;8421638;28;20036;-49
2022/12/04 06:58:13;;;;;;;24.27;12.73;;;;;;;2.88;91.76;100634.81;8396129;28;20048;-51
2022/12/04 07:02:13;;;;;;;23.60;11.98;;;;;;;2.87;92.76;100627.78;8351062;28;20041;-51
2022/12/04 07:06:25;;;;;;;24.33;12.40;;;;;;;2.81;92.07;100638.81;8338811;28;20065;-53
2022/12/04 07:10:26;;;;;;;22.23;11.30;;;;;;;2.80;92.50;100635.28;8343338;28;20132;-49
2022/12/04 07:14:26;;;;;;;26.27;12.80;;;;;;;2.76;92.77;100651.56;8359366;28;20049;-48
2022/12/04 07:18:28;;;;;;;25.33;12.25;;;;;;;2.70;93.16;100647.44;8373532;28;20033;-52
2022/12/04 07:22:29;;;;;;;22.05;11.15;;;;;;;2.66;92.94;100645.91;8366690;28;20041;-51
2022/12/04 07:26:30;;;;;;;23.05;11.98;;;;;;;2.64;93.33;100647.78;8390546;28;20036;-52
2022/12/04 07:30:30;;;;;;;22.45;11.82;;;;;;;2.59;92.49;100644.50;8371834;28;20499;-50
2022/12/04 07:34:31;;;;;;;22.08;10.52;;;;;;;2.55;92.13;100642.97;8377835;28;20086;-49
2022/12/04 07:38:33;;;;;;;25.42;11.65;;;;;;;2.52;93.31;100643.16;8370486;28;20040;-49
2022/12/04 07:42:34;;;;;;;23.30;11.77;;;;;;;2.52;92.81;100648.47;8389167;28;20493;-52
2022/12/04 07:46:34;;;;;;;25.52;12.00;;;;;;;2.47;92.38;100641.69;8367257;28;20441;-52
2022/12/04 07:50:35;;;;;;;22.83;11.32;;;;;;;2.46;92.95;100654.16;8365166;28;20541;-49
2022/12/04 07:54:35;;;;;;;25.85;12.88;;;;;;;2.46;93.78;100646.16;8375333;28;20043;-52
2022/12/04 07:58:36;;;;;;;22.88;11.77;;;;;;;2.45;93.22;100652.44;8366885;28;20089;-51
2022/12/04 08:02:37;;;;;;;23.42;11.88;;;;;;;2.41;93.47;100650.03;8371891;28;20086;-51
2022/12/04 08:06:38;;;;;;;22.27;10.25;;;;;;;2.41;93.79;100650.88;8368411;28;20056;-51
2022/12/04 08:10:39;;;;;;;23.45;11.75;;;;;;;2.41;93.45;100650.03;8339998;28;20394;-52
2022/12/04 08:14:40;;;;;;;24.63;11.40;;;;;;;2.35;93.48;100651.22;8352402;28;20120;-52
2022/12/04 08:18:45;;;;;;;22.92;11.60;;;;;;;2.36;93.78;100658.31;8371331;28;20040;-51
2022/12/04 08:22:46;;;;;;;30.65;12.38;;;;;;;2.33;93.46;100653.13;8380268;28;20041;-52
2022/12/04 08:26:47;;;;;;;33.17;13.80;;;;;;;2.38;93.91;100666.22;8390080;28;20071;-48
2022/12/04 08:30:47;;;;;;;26.67;11.77;;;;;;;2.32;93.26;100659.44;8373607;28;20029;-54
2022/12/04 08:34:50;;;;;;;22.25;11.27;;;;;;;2.30;93.11;100661.31;8372589;28;20037;-52
2022/12/04 08:38:51;;;;;;;33.08;15.43;;;;;;;2.33;93.84;100658.47;8377328;28;20129;-54
2022/12/04 08:42:52;;;;;;;37.22;18.25;;;;;;;2.35;94.18;100661.88;8391839;28;20334;-52
2022/12/04 08:46:57;;;;;;;31.27;14.63;;;;;;;2.39;94.10;100663.47;8370507;28;20040;-54
2022/12/04 08:50:59;;;;;;;24.95;14.25;;;;;;;2.38;94.62;100661.72;8365691;28;20041;-54
2022/12/04 08:54:59;;;;;;;31.65;14.13;;;;;;;2.43;94.03;100664.13;8351189;28;20060;-52
2022/12/04 08:59:00;;;;;;;28.27;14.45;;;;;;;2.44;94.25;100657.88;8363866;28;20060;-51
2022/12/04 09:03:01;;;;;;;32.38;15.75;;;;;;;2.43;93.94;100654.34;8403250;28;20128;-51
2022/12/04 09:07:01;;;;;;;32.47;14.60;;;;;;;2.51;94.28;100646.78;8414622;28;20048;-53
2022/12/04 09:11:07;;;;;;;35.40;14.20;;;;;;;2.50;94.21;100655.69;8383529;28;20129;-55
2022/12/04 09:15:08;;;;;;;32.28;15.98;;;;;;;2.51;94.31;100653.91;8368715;28;20052;-53
2022/12/04 09:19:09;;;;;;;28.70;13.30;;;;;;;2.51;94.13;100660.09;8340159;28;20041;-52
2022/12/04 09:23:09;;;;;;;28.10;13.63;;;;;;;2.47;93.34;100676.38;8354160;28;20550;-54
2022/12/04 09:27:10;;;;;;;30.40;13.45;;;;;;;2.49;94.18;100670.00;8379157;28;20036;-52
2022/12/04 09:31:10;;;;;;;39.38;16.65;;;;;;;2.49;94.05;100674.47;8376336;28;20076;-55
2022/12/04 09:35:11;;;;;;;33.90;15.75;;;;;;;2.53;94.30;100682.22;8363278;28;20490;-51
2022/12/04 09:39:11;;;;;;;36.05;15.32;;;;;;;2.53;93.45;100681.38;8369271;28;20557;-51
2022/12/04 09:43:30;;;;;;;30.45;14.38;;;;;;;2.55;93.46;100669.66;8371408;28;20128;-51
2022/12/04 09:47:35;;;;;;;33.70;15.23;;;;;;;2.54;93.57;100673.28;8349292;28;20033;-53
2022/12/04 09:51:38;;;;;;;34.25;14.75;;;;;;;2.49;93.16;100675.34;8364038;28;20075;-54
2022/12/04 09:55:44;;;;;;;37.60;15.37;;;;;;;2.55;93.42;100676.78;8370631;28;20461;-55
2022/12/04 09:59:45;;;;;;;28.63;14.15;;;;;;;2.52;92.94;100680.50;8367883;28;20533;-51
2022/12/04 10:03:45;;;;;;;34.72;15.75;;;;;;;2.57;93.68;100678.44;8348098;28;20407;-53
2022/12/04 10:08:11;;;;;;;33.35;15.68;;;;;;;2.59;93.23;100665.84;8355876;28;20041;-51
2022/12/04 10:12:45;;;;;;;33.08;14.93;;;;;;;2.60;93.75;100667.59;8346045;28;20044;-53
2022/12/04 10:17:15;;;;;;;31.23;14.75;;;;;;;2.62;93.58;100663.00;8351590;28;20592;-52
2022/12/04 10:21:29;;;;;;;30.85;15.13;;;;;;;2.62;93.55;100665.69;8355247;28;20770;-53
2022/12/04 10:25:35;;;;;;;29.38;14.40;;;;;;;2.61;93.04;100658.63;8340573;28;20495;-55
2022/12/04 10:29:39;;;;;;;29.42;14.07;;;;;;;2.71;94.68;100651.81;8361264;28;20044;-51
2022/12/04 10:33:46;;;;;;;31.53;15.33;;;;;;;2.71;93.43;100658.97;8341275;28;20511;-53
2022/12/04 10:37:53;;;;;;;30.67;15.45;;;;;;;2.73;93.40;100651.72;8347156;28;20507;-51
2022/12/04 10:42:02;;;;;;;29.35;14.15;;;;;;;2.71;93.30;100638.47;8335971;28;20398;-55
2022/12/04 10:46:04;;;;;;;32.58;15.13;;;;;;;2.78;94.45;100633.66;8382910;28;20075;-52
2022/12/04 10:50:16;;;;;;;29.77;13.77;;;;;;;2.74;93.45;100632.94;8367395;28;20033;-52
2022/12/04 10:54:29;;;;;;;34.15;14.98;;;;;;;2.75;93.70;100624.03;8360809;28;20110;-54
2022/12/04 10:58:30;;;;;;;34.63;14.95;;;;;;;2.76;93.31;100623.06;8388816;28;20592;-52
2022/12/04 11:02:32;;;;;;;27.90;14.10;;;;;;;2.73;93.83;100619.69;8391837;28;20036;-51
2022/12/04 11:06:33;;;;;;;30.92;15.48;;;;;;;2.69;93.64;100613.69;8379898;28;20503;-54
2022/12/04 11:10:43;;;;;;;27.45;13.18;;;;;;;2.75;94.10;100608.00;8375386;28;20119;-52
2022/12/04 11:14:43;;;;;;;28.60;14.38;;;;;;;2.75;93.68;100613.34;8375817;28;20391;-52
2022/12/04 11:18:47;;;;;;;30.70;13.82;;;;;;;2.81;93.78;100618.28;8372777;28;20060;-51
2022/12/04 11:23:04;;;;;;;29.58;15.65;;;;;;;2.81;93.88;100618.28;8377907;28;20036;-55
2022/12/04 11:27:07;;;;;;;25.70;14.05;;;;;;;2.90;94.55;100616.91;8382293;28;20060;-55
2022/12/04 11:31:09;;;;;;;30.77;13.45;;;;;;;2.85;93.13;100625.19;8381244;28;20036;-51
2022/12/04 11:35:16;;;;;;;24.52;14.68;;;;;;;2.89;93.23;100610.72;8367342;28;20127;-51
2022/12/04 11:39:25;;;;;;;27.27;14.00;;;;;;;2.88;92.75;100603.66;8378284;28;20449;-54
2022/12/04 11:43:28;;;;;;;33.22;14.90;;;;;;;2.92;93.51;100602.53;8374077;28;20048;-54
2022/12/04 11:47:31;;;;;;;27.92;13.95;;;;;;;2.92;93.27;100599.84;8377984;28;20411;-54
2022/12/04 11:51:57;;;;;;;24.70;12.73;;;;;;;2.97;93.40;100595.09;8373376;28;21006;-50
2022/12/04 11:56:35;;;;;;;28.38;13.77;;;;;;;3.00;93.89;100602.94;8380904;28;20049;-53
2022/12/04 12:00:47;;;;;;;27.00;12.98;;;;;;;3.00;93.12;100602.06;8375025;28;20119;-51
2022/12/04 12:05:07;;;;;;;24.70;13.38;;;;;;;3.00;93.21;100599.41;8401563;28;20040;-51
2022/12/04 12:09:24;;;;;;;28.40;13.40;;;;;;;3.04;92.92;100604.47;8386721;28;20498;-51
2022/12/04 12:18:13;;;;;;;31.33;14.80;;;;;;;3.13;93.16;100598.56;8406747;27;20970;-49
2022/12/04 12:26:53;;;;;;;29.20;15.15;;;;;;;3.11;93.95;100595.13;8342337;27;20358;-52
2022/12/04 12:35:21;;;;;;;30.23;14.75;;;;;;;3.04;93.82;100596.44;8286894;28;20365;-49
2022/12/04 12:39:25;;;;;;;;;;;;;;;3.08;94.73;100597.97;8337343;28;20045;-51
2022/12/04 12:43:30;;;;;;;33.90;14.85;;;;;;;3.06;94.54;100581.22;8347958;28;20008;-51
2022/12/04 12:47:39;;;;;;;35.30;17.52;;;;;;;3.05;94.33;100574.13;8347156;28;20072;-49
2022/12/04 12:52:19;;;;;;;33.88;16.67;;;;;;;3.08;94.47;100579.28;8319360;28;20037;-49
2022/12/04 12:56:30;;;;;;;35.88;16.42;;;;;;;3.07;94.53;100560.69;8278447;28;20123;-51
2022/12/04 13:00:38;;;;;;;28.00;13.15;;;;;;;3.09;94.58;100564.13;8302577;28;20046;-50
2022/12/04 13:04:42;;;;;;;30.08;13.98;;;;;;;3.05;94.73;100563.44;8285177;28;20027;-52
2022/12/04 13:09:05;;;;;;;34.28;14.40;;;;;;;3.08;94.75;100562.44;8293055;28;20105;-48
2022/12/04 13:13:19;;;;;;;32.20;15.15;;;;;;;3.11;94.72;100571.09;8278865;28;20469;-49
2022/12/04 13:17:30;;;;;;;30.00;13.98;;;;;;;3.12;95.42;100567.50;8318779;28;20037;-50
2022/12/04 13:21:46;;;;;;;34.03;15.15;;;;;;;3.11;94.73;100556.91;8308615;28;20108;-48
2022/12/04 13:26:02;;;;;;;31.52;14.27;;;;;;;3.16;95.72;100544.97;8285066;28;20069;-52
2022/12/04 13:30:13;;;;;;;30.88;15.02;;;;;;;3.14;94.99;100546.88;8281330;28;20038;-49
2022/12/04 13:34:49;;;;;;;34.55;15.07;;;;;;;3.16;95.19;100544.97;8280589;28;20390;-50
2022/12/04 13:39:22;;;;;;;32.33;13.70;;;;;;;3.13;95.29;100534.47;8297548;28;20145;-49
2022/12/04 13:43:29;;;;;;;30.75;14.05;;;;;;;3.13;94.66;100539.81;8276496;28;20416;-49
2022/12/04 13:47:32;;;;;;;28.48;13.73;;;;;;;3.18;95.79;100537.75;8273671;28;20110;-49
2022/12/04 13:51:37;;;;;;;32.60;14.20;;;;;;;3.19;95.97;100536.78;8270062;28;20402;-49
2022/12/04 13:55:39;;;;;;;28.33;14.65;;;;;;;3.17;95.42;100549.34;8256901;28;20088;-49
2022/12/04 13:59:41;;;;;;;32.70;14.35;;;;;;;3.17;96.27;100541.34;8270815;28;20038;-50
2022/12/04 14:03:48;;;;;;;29.75;14.40;;;;;;;3.19;96.06;100536.78;8254845;28;20038;-49
2022/12/04 14:08:15;;;;;;;31.38;15.73;;;;;;;3.19;95.73;100533.25;8273683;28;20037;-49
2022/12/04 14:12:16;;;;;;;36.75;15.13;;;;;;;3.22;96.64;100539.25;8253326;28;20411;-50
2022/12/04 14:16:21;;;;;;;29.42;14.55;;;;;;;3.27;97.29;100547.84;8270797;28;20134;-49
2022/12/04 14:20:27;;;;;;;30.38;13.85;;;;;;;3.25;95.68;100546.22;8273686;28;20045;-49
2022/12/04 14:24:34;;;;;;;34.83;14.70;;;;;;;3.26;95.71;100534.59;8277968;28;20038;-52
2022/12/04 14:32:49;;;;;;;34.08;15.25;;;;;;;3.26;95.66;100532.75;8298254;28;20711;-51
2022/12/04 14:36:53;;;;;;;30.17;14.18;;;;;;;3.26;95.60;100529.25;8278170;28;20078;-49
2022/12/04 14:40:56;;;;;;;30.27;14.73;;;;;;;3.28;95.65;100522.00;8276206;28;20038;-49
2022/12/04 14:44:59;;;;;;;37.60;16.63;;;;;;;3.28;95.52;100535.34;8269304;28;20523;-48
2022/12/04 14:49:26;;;;;;;33.97;14.02;;;;;;;3.28;95.10;100528.19;8272620;28;20038;-50
2022/12/04 14:53:42;;;;;;;27.50;13.85;;;;;;;3.30;94.72;100526.28;8273228;28;20039;-50
2022/12/04 14:58:42;;;;;;;36.33;14.40;;;;;;;3.30;95.53;100528.94;8272697;28;20496;-49
2022/12/04 15:02:38;;;;;;;26.70;13.73;;;;;;;3.30;95.18;100536.97;8283478;28;20092;-50
2022/12/04 15:06:39;;;;;;;31.73;14.43;;;;;;;3.30;95.17;100534.28;8242989;28;20329;-49
2022/12/04 15:15:18;;;;;;;30.67;14.80;;;;;;;3.32;95.39;100529.72;8240805;28;20465;-52
2022/12/04 15:19:19;;;;;;;35.38;15.00;;;;;;;3.35;95.58;100534.88;8243142;28;20077;-52
2022/12/04 15:23:33;;;;;;;31.67;14.63;;;;;;;3.35;95.63;100529.53;8244791;28;20050;-49
2022/12/04 15:27:34;;;;;;;35.00;14.93;;;;;;;3.38;95.92;100534.69;8268309;28;20526;-50
2022/12/04 15:31:45;;;;;;;33.75;14.98;;;;;;;3.40;95.98;100538.13;8275363;28;20396;-49
2022/12/04 15:35:56;;;;;;;31.50;14.23;;;;;;;3.44;96.27;100547.66;8275923;28;20415;-49
2022/12/04 15:39:57;;;;;;;30.73;14.25;;;;;;;3.45;96.98;100535.16;8277162;28;20065;-49
2022/12/04 15:43:59;;;;;;;30.33;13.80;;;;;;;3.42;96.49;100530.84;8257391;28;20073;-52
2022/12/04 15:48:00;;;;;;;34.13;15.40;;;;;;;3.43;97.12;100537.94;8246847;28;20367;-50
2022/12/04 15:52:05;;;;;;;30.67;14.30;;;;;;;3.44;97.83;100544.13;8234147;28;20054;-50
2022/12/04 15:56:14;;;;;;;29.50;14.18;;;;;;;3.38;97.76;100545.38;8252511;28;20034;-50
2022/12/04 16:00:36;;;;;;;30.00;13.90;;;;;;;3.39;97.31;100541.72;8249641;28;20095;-50
2022/12/04 16:04:37;;;;;;;31.42;14.07;;;;;;;3.39;97.75;100546.25;8249327;28;20053;-53
2022/12/04 16:08:39;;;;;;;33.67;13.75;;;;;;;3.38;97.87;100539.16;8250005;28;20039;-49
2022/12/04 16:12:51;;;;;;;30.77;14.27;;;;;;;3.38;98.17;100537.34;8244532;28;20030;-51
2022/12/04 16:16:54;;;;;;;30.17;14.77;;;;;;;3.40;97.92;100534.59;8255484;28;20034;-49
2022/12/04 16:20:55;;;;;;;31.48;13.98;;;;;;;3.42;97.74;100536.19;8256972;28;20455;-49
2022/12/04 16:24:55;;;;;;;27.35;14.43;;;;;;;3.39;97.47;100536.38;8257483;28;20085;-49
2022/12/04 16:28:56;;;;;;;29.70;13.85;;;;;;;3.44;98.29;100539.66;8253508;28;20044;-49
2022/12/04 16:32:57;;;;;;;31.58;14.25;;;;;;;3.45;97.26;100541.34;8242891;28;20523;-50
2022/12/04 16:36:57;;;;;;;33.05;14.65;;;;;;;3.45;97.00;100552.03;8234540;28;20038;-51
2022/12/04 16:40:58;;;;;;;30.42;14.20;;;;;;;3.46;96.95;100556.44;8244555;28;20061;-50
2022/12/04 16:44:59;;;;;;;30.02;13.77;;;;;;;3.50;96.74;100563.31;8249019;28;20038;-50
2022/12/04 16:48:59;;;;;;;31.02;14.05;;;;;;;3.52;96.83;100572.13;8247353;28;20035;-49
2022/12/04 16:53:00;;;;;;;29.10;13.70;;;;;;;3.52;96.86;100565.91;8249245;28;20050;-51
2022/12/04 16:57:01;;;;;;;29.80;13.93;;;;;;;3.51;96.79;100570.38;8255798;28;20070;-50
2022/12/04 17:01:03;;;;;;;29.77;14.27;;;;;;;3.50;96.68;100567.78;8255483;28;20089;-50
2022/12/04 17:05:03;;;;;;;31.75;14.80;;;;;;;3.51;96.44;100562.34;8220581;28;20039;-50
2022/12/04 17:09:04;;;;;;;32.85;14.05;;;;;;;3.51;96.90;100566.84;8214507;28;20126;-52
2022/12/04 17:13:05;;;;;;;29.55;14.25;;;;;;;3.55;97.00;100571.91;8223301;28;20405;-49
2022/12/04 17:17:05;;;;;;;29.25;13.10;;;;;;;3.56;96.93;100570.94;8224764;28;20043;-53
2022/12/04 17:21:07;;;;;;;28.08;14.65;;;;;;;3.55;96.71;100569.25;8231251;28;20096;-50
2022/12/04 17:25:09;;;;;;;29.48;13.73;;;;;;;3.57;96.28;100572.66;8215020;28;20047;-50
2022/12/04 17:29:10;;;;;;;28.08;13.82;;;;;;;3.59;96.49;100573.44;8222494;28;20074;-49
2022/12/04 17:33:10;;;;;;;29.38;14.43;;;;;;;3.61;96.01;100573.34;8227675;28;20073;-50
2022/12/04 17:37:11;;;;;;;30.90;15.10;;;;;;;3.60;96.53;100572.47;8223037;28;20053;-49
2022/12/04 17:41:13;;;;;;;31.58;14.13;;;;;;;3.61;97.00;100566.19;8222132;28;20117;-50
2022/12/04 17:45:15;;;;;;;36.70;14.45;;;;;;;3.63;97.18;100574.94;8222130;28;20047;-50
2022/12/04 17:49:16;;;;;;;32.55;15.30;;;;;;;3.65;96.83;100569.50;8221727;28;20165;-50
2022/12/04 17:53:16;;;;;;;31.23;14.90;;;;;;;3.67;97.24;100565.81;8217855;28;20046;-49
2022/12/04 17:57:17;;;;;;;33.13;15.32;;;;;;;3.65;97.56;100554.34;8221528;28;20050;-50
2022/12/04 18:01:22;;;;;;;38.17;15.60;;;;;;;3.70;98.15;100557.59;8219365;28;20111;-49
2022/12/04 18:05:22;;;;;;;38.90;15.68;;;;;;;3.69;98.59;100566.56;8208830;28;20042;-50
2022/12/04 18:09:23;;;;;;;35.42;15.93;;;;;;;3.73;98.55;100568.06;8246642;28;20597;-51
2022/12/04 18:13:24;;;;;;;37.80;17.20;;;;;;;3.73;99.48;100560.06;8252581;28;20456;-51
2022/12/04 18:17:24;;;;;;;42.83;17.52;;;;;;;3.75;100.00;100560.81;8239951;28;20123;-51
2022/12/04 18:21:25;;;;;;;40.05;17.25;;;;;;;3.77;100.00;100572.28;8252885;28;20045;-50
2022/12/04 18:25:25;;;;;;;49.00;19.08;;;;;;;3.75;100.00;100560.81;8247987;28;20104;-50
2022/12/04 18:29:26;;;;;;;45.08;18.58;;;;;;;3.78;100.00;100560.63;8249588;28;20381;-50
2022/12/04 18:33:30;;;;;;;38.60;17.55;;;;;;;3.77;100.00;100561.59;8255288;28;20377;-49
2022/12/04 18:37:32;;;;;;;48.87;20.43;;;;;;;3.79;100.00;100567.69;8254748;28;20034;-51
2022/12/04 18:41:33;;;;;;;44.83;19.23;;;;;;;3.80;100.00;100553.38;8252802;28;20277;-49
2022/12/04 18:45:34;;;;;;;49.00;21.08;;;;;;;3.78;100.00;100555.28;8253485;28;20043;-51
2022/12/04 18:49:34;;;;;;;48.58;21.17;;;;;;;3.79;100.00;100556.16;8252406;28;20165;-51
2022/12/04 18:53:35;;;;;;;44.92;19.65;;;;;;;3.80;100.00;100563.22;8253652;28;20034;-53
2022/12/04 18:57:36;;;;;;;43.78;19.25;;;;;;;3.80;100.00;100553.38;8252352;28;20504;-50
2022/12/04 19:01:37;;;;;;;54.22;22.17;;;;;;;3.82;100.00;100567.50;8252006;28;20049;-49
2022/12/04 19:05:47;;;;;;;53.95;21.65;;;;;;;3.81;100.00;100565.78;8252806;28;20339;-50
2022/12/04 19:09:47;;;;;;;52.47;21.83;;;;;;;3.81;100.00;100570.25;8253562;28;20034;-53
2022/12/04 19:13:48;;;;;;;58.13;22.10;;;;;;;3.80;100.00;100564.06;8252702;28;20123;-50
2022/12/04 19:17:48;;;;;;;55.83;22.00;;;;;;;3.81;100.00;100564.91;8256252;28;20510;-49
2022/12/04 19:21:49;;;;;;;53.55;23.80;;;;;;;3.79;100.00;100558.81;8254333;28;20038;-50